首页
METAR-TAF:

METAR-TAF

机场 :

格林维尔, 密西西比州, 美国

纬度: 33-28-58N, 经度: 090-59-08W, 海拔: 40米

当前天气观测

该预报发布于7分钟前的22:33 UTC
风速15节,风向,有时为36节阵风
温度 23°C
湿度 89%
气压 1014 hPa
能見度: 4.8公里
少量云层高于800英尺
多云层高于4700英尺
阴天层高于5500英尺
小雨, 轻雾

METAR: KGLH 052233Z 10015G36KT 3SM -RA BR FEW008 BKN047 OVC055 23/21 A2995 RMK AO2 PK WND 07042/2212 RAB20 P0002 T02280211

时间: 17:40 (22:40 UTC)

预报

该预报发布于5小时和12分钟前的17:28 UTC
预报有效从05日的 18点(UTC)到 06日的 18点(UTC)
风速5节,风向南转西南
能見度: 10公里
散云层高于2500英尺
从 05日的 2000点(UTC)
风速6节,风向西南
能見度: 10公里
多云层高于3500英尺, 积雨云.
阴天层高于10000英尺
附近有雷暴
短暂存在
从 05日的 21点(UTC)到 05日的 23点(UTC)
风速25节,风向,有时为40节阵风
能見度: 3.2公里
阴天层高于5000英尺, 积雨云.
雷暴, 雨
从 06日的 0000点(UTC)
风速10节,风向
能見度: 10公里
少量云层高于10000英尺
散云层高于25000英尺
从 06日的 1300点(UTC)
风速7节,风向东北
能見度: 10公里
少量云层高于25000英尺

TAF: KGLH 051728Z 0518/0618 20005KT P6SM SCT025 FM052000 23006KT P6SM VCTS BKN035CB OVC100 TEMPO 0521/0523 36025G40KT 2SM TSRA OVC050CB FM060000 35010KT P6SM FEW100 SCT250 FM061300 04007KT P6SM FEW250

超过4000个机场的气象观测和天气预报(METAR&TAF报告)。

可查询的气象台以黄色和红色小点在地图上表示。

将鼠标移到小点上方,可查看气象台名称。

然后点击查看天气观测和预报。

如需切换地图:点击带黑十字的绿色按钮放大地图;点击带横线的绿色按钮缩小地图;或者点击绿色箭头查看邻近地区的地图。


METAR-TAF: